Meaford, Canada
Current Conditions -  °F | °C
As of 4:00 AM on Monday 24 Nov 2014 (Local Time) from CYVV Reporting Station
Light Rain Light Rain  
Wind Chill: 41°   Ceiling: 4500
Heat Index: 48°   Visibility: 10mi
Dew Point: 46°   Wind: 22mph
Humidity: 93%   Direction: 150°SSE
Pressure: 29.1"   Gusts: 37mph
Location:  44.61°N, 80.59°W
Report Text: CYVV 240900Z 15019G32KT 10SM -RA SCT014 OVC045 09/08 A2910 RMK SF3SC5 PRESFR SLP858 DENSITY ALT 1100FT
Loading
Personal Weather Stations






























Interactive Weather Map New forecast layout! Learn more

10-Day Weather Forecast

Advertisements
Track Severe Weather on mobile